sensor_id;sensor_type;location;lat;lon;timestamp;P1;durP1;ratioP1;P2;durP2;ratioP2
31095;SDS011;17749;51.962;8.560;2022-12-20T06:01:40;11.73;;;7.25;;
31095;SDS011;17749;51.962;8.560;2022-12-20T06:04:13;10.85;;;6.85;;
31095;SDS011;17749;51.962;8.560;2022-12-20T06:06:45;9.95;;;7.20;;
31095;SDS011;17749;51.962;8.560;2022-12-20T06:09:36;10.80;;;6.80;;
31095;SDS011;17749;51.962;8.560;2022-12-20T06:22:15;11.25;;;7.15;;
31095;SDS011;17749;51.962;8.560;2022-12-20T06:24:55;10.00;;;7.80;;
31095;SDS011;17749;51.962;8.560;2022-12-20T06:27:27;11.90;;;7.90;;
31095;SDS011;17749;51.962;8.560;2022-12-20T06:30:09;15.13;;;8.57;;
31095;SDS011;17749;51.962;8.560;2022-12-20T06:33:09;16.33;;;8.63;;
31095;SDS011;17749;51.962;8.560;2022-12-20T06:35:36;18.10;;;10.23;;
31095;SDS011;17749;51.962;8.560;2022-12-20T06:38:04;17.55;;;9.00;;
31095;SDS011;17749;51.962;8.560;2022-12-20T06:40:33;17.05;;;8.98;;
31095;SDS011;17749;51.962;8.560;2022-12-20T06:43:00;17.58;;;9.18;;
31095;SDS011;17749;51.962;8.560;2022-12-20T06:45:27;12.00;;;9.38;;
31095;SDS011;17749;51.962;8.560;2022-12-20T06:47:56;17.35;;;9.68;;
31095;SDS011;17749;51.962;8.560;2022-12-20T06:50:23;14.25;;;9.45;;
31095;SDS011;17749;51.962;8.560;2022-12-20T06:52:51;18.70;;;10.27;;
31095;SDS011;17749;51.962;8.560;2022-12-20T06:55:18;18.25;;;9.55;;
31095;SDS011;17749;51.962;8.560;2022-12-20T06:57:45;17.40;;;10.38;;
31095;SDS011;17749;51.962;8.560;2022-12-20T07:00:14;20.45;;;12.63;;
31095;SDS011;17749;51.962;8.560;2022-12-20T07:02:42;20.50;;;12.20;;
31095;SDS011;17749;51.962;8.560;2022-12-20T07:05:09;16.77;;;11.43;;
31095;SDS011;17749;51.962;8.560;2022-12-20T07:07:36;20.27;;;11.75;;
31095;SDS011;17749;51.962;8.560;2022-12-20T07:10:10;17.00;;;11.45;;
31095;SDS011;17749;51.962;8.560;2022-12-20T07:12:37;17.88;;;11.30;;
31095;SDS011;17749;51.962;8.560;2022-12-20T07:15:13;19.42;;;11.68;;
31095;SDS011;17749;51.962;8.560;2022-12-20T07:17:40;20.75;;;12.30;;
31095;SDS011;17749;51.962;8.560;2022-12-20T07:20:07;20.48;;;12.75;;
31095;SDS011;17749;51.962;8.560;2022-12-20T07:22:39;21.80;;;12.65;;
31095;SDS011;17749;51.962;8.560;2022-12-20T07:25:07;20.67;;;12.43;;
31095;SDS011;17749;51.962;8.560;2022-12-20T07:27:34;21.60;;;12.52;;
31095;SDS011;17749;51.962;8.560;2022-12-20T07:30:02;20.33;;;12.90;;
31095;SDS011;17749;51.962;8.560;2022-12-20T07:32:30;21.17;;;13.18;;
31095;SDS011;17749;51.962;8.560;2022-12-20T07:34:58;23.15;;;13.35;;
31095;SDS011;17749;51.962;8.560;2022-12-20T07:37:25;18.83;;;12.48;;
31095;SDS011;17749;51.962;8.560;2022-12-20T07:39:54;21.77;;;14.27;;
31095;SDS011;17749;51.962;8.560;2022-12-20T07:42:21;19.40;;;13.65;;
31095;SDS011;17749;51.962;8.560;2022-12-20T07:44:49;21.10;;;13.57;;
31095;SDS011;17749;51.962;8.560;2022-12-20T07:47:16;20.42;;;13.52;;
31095;SDS011;17749;51.962;8.560;2022-12-20T07:49:43;25.23;;;13.85;;
31095;SDS011;17749;51.962;8.560;2022-12-20T07:52:10;21.55;;;13.73;;
31095;SDS011;17749;51.962;8.560;2022-12-20T07:54:41;21.38;;;13.30;;
31095;SDS011;17749;51.962;8.560;2022-12-20T07:57:16;21.30;;;12.85;;
31095;SDS011;17749;51.962;8.560;2022-12-20T07:59:49;25.15;;;14.13;;
31095;SDS011;17749;51.962;8.560;2022-12-20T08:02:25;23.00;;;13.93;;
31095;SDS011;17749;51.962;8.560;2022-12-20T08:04:56;22.17;;;12.52;;
31095;SDS011;17749;51.962;8.560;2022-12-20T08:07:23;23.77;;;13.07;;
31095;SDS011;17749;51.962;8.560;2022-12-20T08:09:52;20.95;;;12.23;;
31095;SDS011;17749;51.962;8.560;2022-12-20T08:12:19;21.10;;;13.25;;
31095;SDS011;17749;51.962;8.560;2022-12-20T08:14:47;17.88;;;12.05;;
31095;SDS011;17749;51.962;8.560;2022-12-20T08:17:17;17.45;;;12.23;;
31095;SDS011;17749;51.962;8.560;2022-12-20T08:19:44;21.63;;;12.73;;
31095;SDS011;17749;51.962;8.560;2022-12-20T08:22:13;19.65;;;11.93;;
31095;SDS011;17749;51.962;8.560;2022-12-20T08:24:40;19.73;;;11.82;;
31095;SDS011;17749;51.962;8.560;2022-12-20T08:27:07;19.20;;;11.57;;
31095;SDS011;17749;51.962;8.560;2022-12-20T08:29:34;15.93;;;11.20;;
31095;SDS011;17749;51.962;8.560;2022-12-20T08:32:01;19.02;;;11.38;;
31095;SDS011;17749;51.962;8.560;2022-12-20T08:34:28;17.05;;;11.25;;
31095;SDS011;17749;51.962;8.560;2022-12-20T08:36:54;20.08;;;12.50;;
31095;SDS011;17749;51.962;8.560;2022-12-20T08:39:21;16.52;;;10.32;;
31095;SDS011;17749;51.962;8.560;2022-12-20T08:41:48;19.30;;;10.95;;
31095;SDS011;17749;51.962;8.560;2022-12-20T08:44:15;17.45;;;10.98;;
31095;SDS011;17749;51.962;8.560;2022-12-20T08:46:42;17.30;;;11.13;;
31095;SDS011;17749;51.962;8.560;2022-12-20T08:49:09;18.10;;;11.15;;
31095;SDS011;17749;51.962;8.560;2022-12-20T08:51:36;22.42;;;11.93;;
31095;SDS011;17749;51.962;8.560;2022-12-20T08:54:03;15.82;;;11.32;;
31095;SDS011;17749;51.962;8.560;2022-12-20T08:56:30;16.50;;;10.70;;
31095;SDS011;17749;51.962;8.560;2022-12-20T08:58:57;18.15;;;11.40;;
31095;SDS011;17749;51.962;8.560;2022-12-20T09:01:24;15.98;;;10.90;;
31095;SDS011;17749;51.962;8.560;2022-12-20T09:03:52;14.32;;;10.52;;
31095;SDS011;17749;51.962;8.560;2022-12-20T09:06:20;16.40;;;10.98;;
31095;SDS011;17749;51.962;8.560;2022-12-20T09:08:48;17.15;;;10.95;;
31095;SDS011;17749;51.962;8.560;2022-12-20T09:11:19;16.30;;;11.02;;
31095;SDS011;17749;51.962;8.560;2022-12-20T09:13:52;16.77;;;10.35;;
31095;SDS011;17749;51.962;8.560;2022-12-20T09:16:21;16.13;;;10.40;;
31095;SDS011;17749;51.962;8.560;2022-12-20T09:18:52;14.50;;;9.93;;
31095;SDS011;17749;51.962;8.560;2022-12-20T09:21:28;15.60;;;9.77;;
31095;SDS011;17749;51.962;8.560;2022-12-20T09:23:55;17.65;;;11.77;;
31095;SDS011;17749;51.962;8.560;2022-12-20T09:26:22;16.63;;;9.98;;
31095;SDS011;17749;51.962;8.560;2022-12-20T09:28:50;19.88;;;10.98;;
31095;SDS011;17749;51.962;8.560;2022-12-20T09:31:18;15.15;;;8.98;;
31095;SDS011;17749;51.962;8.560;2022-12-20T09:33:47;15.05;;;9.88;;
31095;SDS011;17749;51.962;8.560;2022-12-20T09:36:15;26.75;;;15.30;;
31095;SDS011;17749;51.962;8.560;2022-12-20T09:38:43;18.70;;;12.32;;
31095;SDS011;17749;51.962;8.560;2022-12-20T09:41:21;16.63;;;9.90;;
31095;SDS011;17749;51.962;8.560;2022-12-20T09:43:54;13.50;;;9.02;;
31095;SDS011;17749;51.962;8.560;2022-12-20T09:46:22;14.88;;;9.82;;
31095;SDS011;17749;51.962;8.560;2022-12-20T09:48:51;13.80;;;9.40;;
31095;SDS011;17749;51.962;8.560;2022-12-20T09:59:51;14.23;;;8.95;;
31095;SDS011;17749;51.962;8.560;2022-12-20T10:02:23;16.60;;;8.75;;
31095;SDS011;17749;51.962;8.560;2022-12-20T10:05:12;12.27;;;8.98;;
31095;SDS011;17749;51.962;8.560;2022-12-20T10:07:54;14.52;;;9.25;;
31095;SDS011;17749;51.962;8.560;2022-12-20T10:19:12;14.00;;;8.20;;
31095;SDS011;17749;51.962;8.560;2022-12-20T10:22:07;11.13;;;8.52;;
31095;SDS011;17749;51.962;8.560;2022-12-20T10:24:40;14.68;;;8.30;;
31095;SDS011;17749;51.962;8.560;2022-12-20T10:27:15;12.63;;;8.77;;
31095;SDS011;17749;51.962;8.560;2022-12-20T10:29:44;14.50;;;8.63;;
31095;SDS011;17749;51.962;8.560;2022-12-20T10:32:14;13.93;;;9.10;;
31095;SDS011;17749;51.962;8.560;2022-12-20T10:35:26;12.18;;;8.80;;
31095;SDS011;17749;51.962;8.560;2022-12-20T10:37:36;12.15;;;9.02;;
31095;SDS011;17749;51.962;8.560;2022-12-20T10:40:10;10.93;;;8.27;;
31095;SDS011;17749;51.962;8.560;2022-12-20T10:43:14;17.05;;;9.75;;
31095;SDS011;17749;51.962;8.560;2022-12-20T10:45:45;13.77;;;9.30;;
31095;SDS011;17749;51.962;8.560;2022-12-20T10:50:57;13.77;;;8.10;;
31095;SDS011;17749;51.962;8.560;2022-12-20T10:53:29;14.45;;;8.98;;
31095;SDS011;17749;51.962;8.560;2022-12-20T10:56:16;19.10;;;9.70;;
31095;SDS011;17749;51.962;8.560;2022-12-20T10:58:53;35.10;;;9.77;;
31095;SDS011;17749;51.962;8.560;2022-12-20T11:01:24;15.00;;;9.43;;
31095;SDS011;17749;51.962;8.560;2022-12-20T11:04:03;12.68;;;9.00;;
31095;SDS011;17749;51.962;8.560;2022-12-20T11:11:57;17.95;;;9.77;;
31095;SDS011;17749;51.962;8.560;2022-12-20T11:14:32;11.48;;;8.95;;
31095;SDS011;17749;51.962;8.560;2022-12-20T11:28:16;11.82;;;8.77;;
31095;SDS011;17749;51.962;8.560;2022-12-20T11:36:55;18.33;;;9.83;;
31095;SDS011;17749;51.962;8.560;2022-12-20T11:48:29;11.07;;;7.63;;
31095;SDS011;17749;51.962;8.560;2022-12-20T11:51:21;12.70;;;9.20;;
31095;SDS011;17749;51.962;8.560;2022-12-20T12:01:50;14.15;;;8.57;;
31095;SDS011;17749;51.962;8.560;2022-12-20T12:04:26;14.60;;;8.27;;
31095;SDS011;17749;51.962;8.560;2022-12-20T12:09:32;16.00;;;9.43;;
31095;SDS011;17749;51.962;8.560;2022-12-20T12:12:02;13.73;;;8.93;;
31095;SDS011;17749;51.962;8.560;2022-12-20T12:17:12;10.60;;;7.18;;
31095;SDS011;17749;51.962;8.560;2022-12-20T12:19:52;12.82;;;6.68;;
31095;SDS011;17749;51.962;8.560;2022-12-20T12:22:27;10.88;;;6.68;;
31095;SDS011;17749;51.962;8.560;2022-12-20T12:25:00;10.07;;;6.65;;
31095;SDS011;17749;51.962;8.560;2022-12-20T12:27:31;10.68;;;7.07;;
31095;SDS011;17749;51.962;8.560;2022-12-20T12:29:58;11.50;;;8.20;;
31095;SDS011;17749;51.962;8.560;2022-12-20T12:32:30;10.73;;;6.80;;
31095;SDS011;17749;51.962;8.560;2022-12-20T12:41:39;6.63;;;4.95;;
31095;SDS011;17749;51.962;8.560;2022-12-20T12:46:47;6.57;;;5.38;;
31095;SDS011;17749;51.962;8.560;2022-12-20T12:49:21;7.53;;;5.57;;
31095;SDS011;17749;51.962;8.560;2022-12-20T12:51:54;9.05;;;5.18;;
31095;SDS011;17749;51.962;8.560;2022-12-20T12:54:25;8.38;;;5.18;;
31095;SDS011;17749;51.962;8.560;2022-12-20T12:57:14;7.05;;;5.10;;
31095;SDS011;17749;51.962;8.560;2022-12-20T13:10:01;6.85;;;5.45;;
31095;SDS011;17749;51.962;8.560;2022-12-20T13:17:49;8.68;;;5.90;;
31095;SDS011;17749;51.962;8.560;2022-12-20T13:20:19;8.55;;;5.65;;
31095;SDS011;17749;51.962;8.560;2022-12-20T13:38:53;7.90;;;4.95;;
31095;SDS011;17749;51.962;8.560;2022-12-20T13:44:09;6.68;;;4.03;;
31095;SDS011;17749;51.962;8.560;2022-12-20T13:49:54;10.32;;;7.13;;
31095;SDS011;17749;51.962;8.560;2022-12-20T13:55:19;10.30;;;4.32;;
31095;SDS011;17749;51.962;8.560;2022-12-20T13:58:12;11.45;;;6.13;;
31095;SDS011;17749;51.962;8.560;2022-12-20T14:00:43;25.40;;;12.70;;
31095;SDS011;17749;51.962;8.560;2022-12-20T14:03:21;8.23;;;4.68;;
31095;SDS011;17749;51.962;8.560;2022-12-20T14:06:09;5.90;;;3.53;;
31095;SDS011;17749;51.962;8.560;2022-12-20T14:08:39;7.18;;;2.92;;
31095;SDS011;17749;51.962;8.560;2022-12-20T14:11:10;7.40;;;3.30;;
31095;SDS011;17749;51.962;8.560;2022-12-20T14:16:16;8.07;;;4.55;;
31095;SDS011;17749;51.962;8.560;2022-12-20T14:18:59;13.55;;;5.88;;
31095;SDS011;17749;51.962;8.560;2022-12-20T14:21:28;12.95;;;8.20;;
31095;SDS011;17749;51.962;8.560;2022-12-20T14:23:56;9.70;;;7.07;;
31095;SDS011;17749;51.962;8.560;2022-12-20T14:26:27;9.27;;;4.13;;
31095;SDS011;17749;51.962;8.560;2022-12-20T14:28:56;6.50;;;3.97;;
31095;SDS011;17749;51.962;8.560;2022-12-20T14:36:37;5.40;;;3.50;;
31095;SDS011;17749;51.962;8.560;2022-12-20T14:42:02;6.35;;;2.80;;
31095;SDS011;17749;51.962;8.560;2022-12-20T14:44:46;6.40;;;4.03;;
31095;SDS011;17749;51.962;8.560;2022-12-20T14:47:18;4.05;;;2.72;;
31095;SDS011;17749;51.962;8.560;2022-12-20T14:49:57;5.60;;;2.90;;
31095;SDS011;17749;51.962;8.560;2022-12-20T14:52:32;5.47;;;2.67;;
31095;SDS011;17749;51.962;8.560;2022-12-20T14:55:16;6.93;;;4.13;;
31095;SDS011;17749;51.962;8.560;2022-12-20T15:02:50;8.57;;;5.38;;
31095;SDS011;17749;51.962;8.560;2022-12-20T15:10:42;10.57;;;6.43;;
31095;SDS011;17749;51.962;8.560;2022-12-20T15:13:15;26.75;;;14.57;;
31095;SDS011;17749;51.962;8.560;2022-12-20T15:15:44;5.78;;;4.53;;
31095;SDS011;17749;51.962;8.560;2022-12-20T15:18:12;7.72;;;5.35;;
31095;SDS011;17749;51.962;8.560;2022-12-20T15:20:45;7.82;;;4.93;;
31095;SDS011;17749;51.962;8.560;2022-12-20T15:23:18;6.63;;;4.50;;
31095;SDS011;17749;51.962;8.560;2022-12-20T15:25:47;8.65;;;5.75;;
31095;SDS011;17749;51.962;8.560;2022-12-20T15:28:18;6.30;;;4.63;;
31095;SDS011;17749;51.962;8.560;2022-12-20T15:30:46;14.38;;;8.82;;
31095;SDS011;17749;51.962;8.560;2022-12-20T15:33:48;6.57;;;3.78;;
31095;SDS011;17749;51.962;8.560;2022-12-20T15:36:14;7.55;;;3.90;;
31095;SDS011;17749;51.962;8.560;2022-12-20T15:38:43;9.07;;;5.07;;
31095;SDS011;17749;51.962;8.560;2022-12-20T15:41:31;6.32;;;4.15;;
31095;SDS011;17749;51.962;8.560;2022-12-20T15:44:00;9.82;;;6.05;;
31095;SDS011;17749;51.962;8.560;2022-12-20T15:46:30;9.65;;;5.65;;
31095;SDS011;17749;51.962;8.560;2022-12-20T15:48:58;8.40;;;4.63;;
31095;SDS011;17749;51.962;8.560;2022-12-20T15:51:35;5.72;;;3.47;;
31095;SDS011;17749;51.962;8.560;2022-12-20T15:54:04;5.75;;;3.90;;
31095;SDS011;17749;51.962;8.560;2022-12-20T15:56:39;9.50;;;4.15;;
31095;SDS011;17749;51.962;8.560;2022-12-20T15:59:06;6.25;;;3.83;;
31095;SDS011;17749;51.962;8.560;2022-12-20T16:01:53;9.52;;;4.07;;
31095;SDS011;17749;51.962;8.560;2022-12-20T16:04:21;7.95;;;4.93;;
31095;SDS011;17749;51.962;8.560;2022-12-20T16:06:49;9.02;;;5.43;;
31095;SDS011;17749;51.962;8.560;2022-12-20T16:09:19;11.93;;;6.03;;
31095;SDS011;17749;51.962;8.560;2022-12-20T16:11:47;7.65;;;5.45;;
31095;SDS011;17749;51.962;8.560;2022-12-20T16:14:14;8.50;;;5.22;;
31095;SDS011;17749;51.962;8.560;2022-12-20T16:16:43;8.25;;;5.50;;
31095;SDS011;17749;51.962;8.560;2022-12-20T16:19:11;7.45;;;5.03;;
31095;SDS011;17749;51.962;8.560;2022-12-20T16:21:48;9.40;;;5.20;;
31095;SDS011;17749;51.962;8.560;2022-12-20T16:24:17;9.95;;;5.38;;
31095;SDS011;17749;51.962;8.560;2022-12-20T16:26:47;8.63;;;5.28;;
31095;SDS011;17749;51.962;8.560;2022-12-20T16:29:14;8.45;;;4.60;;
31095;SDS011;17749;51.962;8.560;2022-12-20T16:31:41;9.05;;;5.20;;
31095;SDS011;17749;51.962;8.560;2022-12-20T16:34:12;8.63;;;5.20;;
31095;SDS011;17749;51.962;8.560;2022-12-20T16:36:41;8.57;;;5.72;;
31095;SDS011;17749;51.962;8.560;2022-12-20T16:39:08;7.70;;;5.20;;
31095;SDS011;17749;51.962;8.560;2022-12-20T16:44:09;9.05;;;5.40;;
31095;SDS011;17749;51.962;8.560;2022-12-20T16:46:39;9.60;;;5.43;;
31095;SDS011;17749;51.962;8.560;2022-12-20T16:49:07;9.45;;;5.95;;
31095;SDS011;17749;51.962;8.560;2022-12-20T16:51:45;9.05;;;5.43;;
31095;SDS011;17749;51.962;8.560;2022-12-20T16:54:18;9.00;;;5.47;;
31095;SDS011;17749;51.962;8.560;2022-12-20T16:56:48;10.40;;;5.72;;
31095;SDS011;17749;51.962;8.560;2022-12-20T16:59:24;7.63;;;4.95;;
31095;SDS011;17749;51.962;8.560;2022-12-20T17:01:53;9.23;;;5.40;;
31095;SDS011;17749;51.962;8.560;2022-12-20T17:04:22;10.60;;;5.70;;
31095;SDS011;17749;51.962;8.560;2022-12-20T17:06:49;8.00;;;5.95;;
31095;SDS011;17749;51.962;8.560;2022-12-20T17:09:16;10.32;;;6.03;;
31095;SDS011;17749;51.962;8.560;2022-12-20T17:12:02;6.57;;;4.35;;
31095;SDS011;17749;51.962;8.560;2022-12-20T17:14:31;7.30;;;5.20;;
31095;SDS011;17749;51.962;8.560;2022-12-20T17:16:57;9.10;;;5.72;;
31095;SDS011;17749;51.962;8.560;2022-12-20T17:19:25;8.73;;;5.97;;
31095;SDS011;17749;51.962;8.560;2022-12-20T17:21:52;7.55;;;5.57;;
31095;SDS011;17749;51.962;8.560;2022-12-20T17:24:36;8.43;;;5.80;;
31095;SDS011;17749;51.962;8.560;2022-12-20T17:27:03;12.25;;;6.57;;
31095;SDS011;17749;51.962;8.560;2022-12-20T17:29:30;11.30;;;7.82;;
31095;SDS011;17749;51.962;8.560;2022-12-20T17:31:57;18.48;;;11.10;;
31095;SDS011;17749;51.962;8.560;2022-12-20T17:34:25;13.95;;;7.72;;
31095;SDS011;17749;51.962;8.560;2022-12-20T17:36:54;9.82;;;7.30;;
31095;SDS011;17749;51.962;8.560;2022-12-20T17:39:23;13.98;;;7.88;;
31095;SDS011;17749;51.962;8.560;2022-12-20T17:41:51;10.67;;;6.63;;
31095;SDS011;17749;51.962;8.560;2022-12-20T17:44:21;9.48;;;7.18;;
31095;SDS011;17749;51.962;8.560;2022-12-20T17:46:51;10.85;;;7.57;;
31095;SDS011;17749;51.962;8.560;2022-12-20T17:49:19;13.55;;;7.32;;
31095;SDS011;17749;51.962;8.560;2022-12-20T17:51:46;10.75;;;7.65;;
31095;SDS011;17749;51.962;8.560;2022-12-20T17:54:15;22.75;;;13.32;;
31095;SDS011;17749;51.962;8.560;2022-12-20T17:56:49;18.63;;;11.45;;
31095;SDS011;17749;51.962;8.560;2022-12-20T17:59:17;15.52;;;10.48;;
31095;SDS011;17749;51.962;8.560;2022-12-20T18:01:45;14.15;;;10.00;;
31095;SDS011;17749;51.962;8.560;2022-12-20T18:04:13;12.23;;;8.82;;
31095;SDS011;17749;51.962;8.560;2022-12-20T18:06:42;12.18;;;8.45;;
31095;SDS011;17749;51.962;8.560;2022-12-20T18:09:11;11.48;;;8.30;;
31095;SDS011;17749;51.962;8.560;2022-12-20T18:11:43;11.70;;;7.88;;
31095;SDS011;17749;51.962;8.560;2022-12-20T18:14:10;11.82;;;7.38;;
31095;SDS011;17749;51.962;8.560;2022-12-20T18:16:38;12.75;;;8.88;;
31095;SDS011;17749;51.962;8.560;2022-12-20T18:19:06;14.93;;;9.60;;
31095;SDS011;17749;51.962;8.560;2022-12-20T18:21:40;10.52;;;8.60;;
31095;SDS011;17749;51.962;8.560;2022-12-20T18:24:10;14.80;;;8.57;;
31095;SDS011;17749;51.962;8.560;2022-12-20T18:26:39;15.82;;;8.82;;
31095;SDS011;17749;51.962;8.560;2022-12-20T18:29:06;17.77;;;9.07;;
31095;SDS011;17749;51.962;8.560;2022-12-20T18:31:35;13.87;;;9.77;;
31095;SDS011;17749;51.962;8.560;2022-12-20T18:34:03;9.23;;;8.23;;
31095;SDS011;17749;51.962;8.560;2022-12-20T18:36:33;12.77;;;9.32;;
31095;SDS011;17749;51.962;8.560;2022-12-20T18:39:03;12.20;;;8.13;;
31095;SDS011;17749;51.962;8.560;2022-12-20T18:41:31;9.55;;;8.23;;
31095;SDS011;17749;51.962;8.560;2022-12-20T18:44:00;14.15;;;8.35;;
31095;SDS011;17749;51.962;8.560;2022-12-20T18:46:31;16.98;;;8.20;;
31095;SDS011;17749;51.962;8.560;2022-12-20T18:48:59;13.23;;;9.05;;
31095;SDS011;17749;51.962;8.560;2022-12-20T18:51:27;15.10;;;9.93;;
31095;SDS011;17749;51.962;8.560;2022-12-20T18:53:57;13.60;;;9.15;;
31095;SDS011;17749;51.962;8.560;2022-12-20T18:56:26;14.77;;;10.02;;
31095;SDS011;17749;51.962;8.560;2022-12-20T18:58:58;16.50;;;9.15;;
31095;SDS011;17749;51.962;8.560;2022-12-20T19:01:36;11.10;;;8.75;;
31095;SDS011;17749;51.962;8.560;2022-12-20T19:04:05;12.60;;;8.98;;
31095;SDS011;17749;51.962;8.560;2022-12-20T19:06:33;12.48;;;8.70;;
31095;SDS011;17749;51.962;8.560;2022-12-20T19:09:01;12.60;;;8.88;;
31095;SDS011;17749;51.962;8.560;2022-12-20T19:11:29;15.13;;;8.70;;
31095;SDS011;17749;51.962;8.560;2022-12-20T19:13:56;11.73;;;8.35;;
31095;SDS011;17749;51.962;8.560;2022-12-20T19:16:24;12.68;;;9.20;;
31095;SDS011;17749;51.962;8.560;2022-12-20T19:18:54;11.27;;;8.98;;
31095;SDS011;17749;51.962;8.560;2022-12-20T19:21:22;12.57;;;8.35;;
31095;SDS011;17749;51.962;8.560;2022-12-20T19:23:55;13.68;;;9.38;;
31095;SDS011;17749;51.962;8.560;2022-12-20T19:28:52;14.93;;;9.53;;
31095;SDS011;17749;51.962;8.560;2022-12-20T19:31:21;15.40;;;9.98;;
31095;SDS011;17749;51.962;8.560;2022-12-20T19:36:37;13.65;;;9.40;;
31095;SDS011;17749;51.962;8.560;2022-12-20T19:39:07;13.98;;;9.63;;
31095;SDS011;17749;51.962;8.560;2022-12-20T19:41:37;16.95;;;10.27;;
31095;SDS011;17749;51.962;8.560;2022-12-20T19:44:05;16.23;;;10.10;;
31095;SDS011;17749;51.962;8.560;2022-12-20T19:46:32;14.77;;;10.57;;
31095;SDS011;17749;51.962;8.560;2022-12-20T19:49:00;13.80;;;9.82;;
31095;SDS011;17749;51.962;8.560;2022-12-20T19:51:27;16.90;;;10.88;;
31095;SDS011;17749;51.962;8.560;2022-12-20T19:53:55;13.63;;;10.35;;
31095;SDS011;17749;51.962;8.560;2022-12-20T19:56:24;16.70;;;10.63;;
31095;SDS011;17749;51.962;8.560;2022-12-20T20:01:21;16.45;;;10.00;;
31095;SDS011;17749;51.962;8.560;2022-12-20T20:03:52;15.00;;;10.98;;
31095;SDS011;17749;51.962;8.560;2022-12-20T20:06:20;15.47;;;10.23;;
31095;SDS011;17749;51.962;8.560;2022-12-20T20:08:48;15.05;;;10.70;;
31095;SDS011;17749;51.962;8.560;2022-12-20T20:11:15;11.70;;;8.63;;
31095;SDS011;17749;51.962;8.560;2022-12-20T20:13:49;14.48;;;10.38;;
31095;SDS011;17749;51.962;8.560;2022-12-20T20:16:16;13.52;;;10.95;;
31095;SDS011;17749;51.962;8.560;2022-12-20T20:18:48;13.77;;;10.50;;
31095;SDS011;17749;51.962;8.560;2022-12-20T20:21:16;13.77;;;10.40;;
31095;SDS011;17749;51.962;8.560;2022-12-20T20:23:51;12.68;;;10.18;;
31095;SDS011;17749;51.962;8.560;2022-12-20T20:26:20;13.70;;;9.80;;
31095;SDS011;17749;51.962;8.560;2022-12-20T20:28:52;17.80;;;11.05;;
31095;SDS011;17749;51.962;8.560;2022-12-20T20:31:19;15.68;;;11.05;;
31095;SDS011;17749;51.962;8.560;2022-12-20T20:33:47;15.48;;;10.85;;
31095;SDS011;17749;51.962;8.560;2022-12-20T20:36:15;14.82;;;10.65;;
31095;SDS011;17749;51.962;8.560;2022-12-20T20:38:44;18.40;;;10.77;;
31095;SDS011;17749;51.962;8.560;2022-12-20T20:41:11;18.13;;;11.55;;
31095;SDS011;17749;51.962;8.560;2022-12-20T20:43:39;15.82;;;10.68;;
31095;SDS011;17749;51.962;8.560;2022-12-20T20:46:08;13.70;;;9.77;;
31095;SDS011;17749;51.962;8.560;2022-12-20T20:48:37;18.38;;;10.85;;
31095;SDS011;17749;51.962;8.560;2022-12-20T20:51:04;17.98;;;11.00;;
31095;SDS011;17749;51.962;8.560;2022-12-20T20:53:32;15.55;;;10.98;;
31095;SDS011;17749;51.962;8.560;2022-12-20T20:56:00;16.73;;;10.63;;
31095;SDS011;17749;51.962;8.560;2022-12-20T20:58:29;15.57;;;11.13;;
31095;SDS011;17749;51.962;8.560;2022-12-20T21:00:57;19.25;;;12.05;;
31095;SDS011;17749;51.962;8.560;2022-12-20T21:03:25;16.30;;;11.83;;
31095;SDS011;17749;51.962;8.560;2022-12-20T21:05:53;15.80;;;10.25;;
31095;SDS011;17749;51.962;8.560;2022-12-20T21:08:41;17.40;;;12.77;;
31095;SDS011;17749;51.962;8.560;2022-12-20T21:11:26;15.15;;;10.93;;
31095;SDS011;17749;51.962;8.560;2022-12-20T21:13:53;18.20;;;13.70;;
31095;SDS011;17749;51.962;8.560;2022-12-20T21:16:20;18.60;;;12.93;;
31095;SDS011;17749;51.962;8.560;2022-12-20T21:18:51;18.52;;;11.93;;
31095;SDS011;17749;51.962;8.560;2022-12-20T21:21:19;16.73;;;12.15;;
31095;SDS011;17749;51.962;8.560;2022-12-20T21:23:47;13.48;;;11.00;;
31095;SDS011;17749;51.962;8.560;2022-12-20T21:26:16;16.98;;;10.68;;
31095;SDS011;17749;51.962;8.560;2022-12-20T21:28:44;12.75;;;9.63;;
